Řízení letového provozu České republiky  
Aktualizace dat:  20.10.2018 23:20:06 UTC English version
   METEO Zobrazení stránky:  20.10.2018 23:21:00 UTC  
vysvětlivky
METAR EDDB 202250Z 26003KT CAVOK 08/05 Q1028 NOSIG=
METAR EDDC 202250Z 26004KT 9999 OVC028 09/04 Q1028=
METAR EDDE 202250Z 22006KT CAVOK 04/02 Q1029=
METAR EDDF 202250Z 02007KT CAVOK 10/05 Q1030 NOSIG=
METAR EDDM 202250Z VRB01KT 5000 BR BKN038 08/06 Q1028 BECMG 3000=
METAR EDDN 202250Z 36002KT CAVOK 03/02 Q1029=
METAR EDDP 202250Z 26005KT CAVOK 08/04 Q1029 NOSIG=
METAR EDDT 202250Z 28002KT CAVOK 07/05 Q1028=
METAR EDQM NIL
METAR EPBY 202300Z VRB01KT 0150 R26/0450D FG SCT000 04/03 Q1026 =
METAR EPGD 202300Z 27005KT 0250 R29/0800N FG VV001 06/06 Q1025 =
METAR EPKK 202300Z 29011KT 9999 BKN053 06/04 Q1025 =
METAR EPKT 202300Z 28005KT 9999 SCT022 BKN031 04/02 Q1025 =
METAR EPLL 202300Z VRB02KT CAVOK 07/06 Q1025 =
METAR EPPO 202300Z 30005KT 9999 SCT013 BKN040 08/07 Q1026 R10/290095 =
METAR EPRZ 202300Z 29012KT 8000 -RA BKN005 OVC012 08/07 Q1022 =
METAR EPWA 202300Z 30004KT 270V330 9999 SCT040 07/07 Q1025 NOSIG=
METAR EPWR 202300Z 29007KT 9999 BKN038 07/03 Q1027 =
METAR LHBP 202300Z 30008KT CAVOK 10/08 Q1021 NOSIG=
METAR LHSM NIL
METAR LKBC 202300Z AUTO VRB01KT 9999 BKN120 BKN150 06/03 Q1027=
METAR LKCV 202300Z 26006KT CAVOK 07/03 Q1028 NOSIG RMK BLU BLU=
METAR LKKB 202300Z 27003KT CAVOK 08/04 Q1028 RMK BLU=
METAR LKKU NIL
METAR LKKV 202300Z 27002KT 9999 FEW033 BKN043 06/03 Q1028 RMK REG QNH 1023=
METAR LKLN 202300Z AUTO 00000KT 9999 FEW057 OVC150 07/04 Q1029=
METAR LKMT 202300Z 01007KT 9999 SCT040 07/01 Q1026 NOSIG RMK REG QNH 1023=
METAR LKNA 202300Z 31003KT 280V340 CAVOK 04/M01 Q1027 RMK BLU=
METAR LKPD 202300Z 00000KT CAVOK 07/02 Q1027 RMK BLACK=
METAR LKPR 202300Z 28004KT CAVOK 08/04 Q1028 NOSIG RMK REG QNH 1023=
METAR LKTB 202300Z 32010KT CAVOK 06/00 Q1027 NOSIG RMK REG QNH 1023=
METAR LKVO NIL
METAR LOWI 202250Z AUTO VRB01KT 8000 FEW024 SCT026 BKN034 09/07 Q1028=
METAR LOWL 202250Z AUTO 01004KT 4500 BR FEW050 BKN060 10/08 Q1028=
METAR LOWS 202250Z AUTO 14003KT 120V180 9999 FEW044 BKN130 10/07 Q1027=
METAR LOWW 202250Z 34015KT 9999 FEW042 BKN048 10/02 Q1026 NOSIG=
METAR LZIB 202300Z 34012KT 9999 SCT024 BKN032 10/05 Q1025=
METAR LZKZ 202300Z 02018KT 9999 FEW019 SCT025 OVC060 09/06 Q1021=
METAR LZMC NIL
METAR LZPP 202300Z AUTO 32013KT 9999 NCD 08/02 Q1024=
METAR LZSL 202300Z 35005KT 9999 FEW040 09/04 Q1022=
METAR LZTT 202300Z VRB01KT 9999 FEW016 BKN040 05/03 Q1022=
METAR LZZI 202300Z VRB01KT CAVOK 06/01 Q1025=